Homeworth, Ohio
Current Conditions -  °F | °C
As of 4:51 PM on Thursday 23 Oct 2014 (Local Time) from KCAK Reporting Station
Scattered Clouds Scattered Clouds  
Wind Chill: 14°   Ceiling: Unl
Heat Index: 14°   Visibility: 10mi
Dew Point:   Wind: 12mph
Humidity: 62%   Direction: 10°N
Pressure: 30.11"   Gusts: NA
Location:  40.84°N, 81.07°W
Report Text: KCAK 232051Z 01010KT 10SM SCT030 14/07 A3011 RMK AO2 SLP200 T01390067 56009
Loading
Personal Weather Stations






























Interactive Weather Map
Tropical Storm Tracking
New forecast layout! Learn more

10-Day Weather Forecast

Advertisements
Track Severe Weather on mobile